Terminal Aerodrome Forecast
Issued by NWS Jackson, MS

Home | Current Version | Previous Version | Text Only | Print | Product List | Glossary On
Versions: 1 2 3 4 5 6 7 8 9 10 11 12 13 14 15 16 17 18 19 20
000
FTUS44 KMEG 292335
TAFTUP
TAF
KTUP 292335Z 3000/3024 23007KT P6SM VCTS SCT030CB BKN050
      TEMPO 3001/3002 VRB15G30KT 2SM TSRA BKN025CB
     FM300200 31007KT P6SM -TSRA BKN035CB OVC100
     FM300500 19002KT P6SM SCT050 SCT150
      TEMPO 3009/3012 5SM BR FEW005
     FM301700 23007KT P6SM VCTS BKN040CB
      TEMPO 3020/3024 3SM TSRA BKN025CB=

USA.gov is the U.S. government's official web portal to all federal, state and local government web resources and services.